Time;durP1;ratioP1;P1;durP2;ratioP2;P2;SDS_P1;SDS_P2;PMS_P1;PMS_P2;Temp;Humidity;BMP_temperature;BMP_pressure;BME280_temperature;BME280_humidity;BME280_pressure;Samples;Min_cycle;Max_cycle;Signal;HPM_P1;HPM_P2
2023/03/24 00:00:10;;;;;;;5.50;1.40;;;;;;;12.05;79.36;99474.94;5105441;28;20203;-71
2023/03/24 00:02:40;;;;;;;2.50;1.27;;;;;;;12.08;79.37;99477.31;5105210;28;20829;-71
2023/03/24 00:05:07;;;;;;;3.87;1.63;;;;;;;12.10;79.36;99475.38;5104407;27;20293;-71
2023/03/24 00:07:37;;;;;;;4.60;1.53;;;;;;;12.10;79.47;99478.03;5102502;28;20301;-70
2023/03/24 00:10:07;;;;;;;2.17;1.30;;;;;;;12.10;79.45;99480.72;5104769;27;20729;-70
2023/03/24 00:12:37;;;;;;;2.50;1.43;;;;;;;12.08;79.33;99478.19;5097078;27;20222;-71
2023/03/24 00:15:05;;;;;;;3.00;1.33;;;;;;;12.09;80.12;99471.84;5101293;27;20232;-70
2023/03/24 00:17:34;;;;;;;3.07;1.53;;;;;;;12.10;79.63;99470.88;5100333;28;20207;-71
2023/03/24 00:20:06;;;;;;;4.10;1.33;;;;;;;12.09;79.65;99461.19;5103128;28;20286;-71
2023/03/24 00:22:33;;;;;;;2.33;1.47;;;;;;;12.10;80.04;99470.03;5103242;27;20299;-71
2023/03/24 00:25:02;;;;;;;2.80;1.83;;;;;;;12.12;80.33;99460.06;5107456;27;20219;-71
2023/03/24 00:27:29;;;;;;;2.47;1.77;;;;;;;12.14;80.48;99460.78;5103685;28;20201;-70
2023/03/24 00:29:58;;;;;;;2.50;1.47;;;;;;;12.20;80.65;99459.38;5103917;28;20225;-71
2023/03/24 00:32:26;;;;;;;1.97;1.63;;;;;;;12.22;80.73;99458.25;5104137;28;20214;-71
2023/03/24 00:34:53;;;;;;;4.13;1.87;;;;;;;12.21;80.71;99451.22;5105472;28;20206;-71
2023/03/24 00:37:19;;;;;;;2.63;1.70;;;;;;;12.22;81.21;99444.91;5102475;28;20208;-71
2023/03/24 00:39:46;;;;;;;2.80;1.60;;;;;;;12.27;81.49;99450.69;5097153;28;20223;-71
2023/03/24 00:42:12;;;;;;;2.30;1.57;;;;;;;12.26;82.27;99445.50;5102364;28;20205;-71
2023/03/24 00:44:39;;;;;;;2.00;1.53;;;;;;;12.25;82.57;99441.97;5103677;28;20202;-71
2023/03/24 00:47:07;;;;;;;2.37;1.97;;;;;;;12.30;83.19;99437.09;5101130;28;20210;-71
2023/03/24 00:49:43;;;;;;;2.47;1.80;;;;;;;12.25;83.62;99428.63;5103590;28;20226;-70
2023/03/24 00:52:11;;;;;;;2.17;1.57;;;;;;;12.23;84.03;99424.41;5104818;28;20202;-71
2023/03/24 00:54:38;;;;;;;3.50;2.00;;;;;;;12.21;84.44;99416.53;5103016;28;20204;-70
2023/03/24 00:57:05;;;;;;;2.73;2.10;;;;;;;12.18;84.76;99416.84;5102183;28;20286;-70
2023/03/24 00:59:41;;;;;;;3.57;2.10;;;;;;;12.15;85.17;99407.28;5103889;28;20219;-71
2023/03/24 01:02:10;;;;;;;3.40;1.90;;;;;;;12.13;85.75;99416.38;5108357;28;20246;-71
2023/03/24 01:04:38;;;;;;;3.80;2.13;;;;;;;12.10;86.20;99416.66;5107468;28;20646;-70
2023/03/24 01:07:06;;;;;;;3.07;1.90;;;;;;;12.11;86.54;99407.69;5106039;28;20229;-71
2023/03/24 01:09:35;;;;;;;3.30;1.63;;;;;;;12.12;86.83;99414.69;5108564;28;20229;-71
2023/03/24 01:12:02;;;;;;;2.40;1.70;;;;;;;12.09;86.85;99404.28;5104271;28;20295;-70
2023/03/24 01:14:29;;;;;;;2.80;1.50;;;;;;;12.07;87.09;99403.59;5102554;28;20765;-70
2023/03/24 01:16:56;;;;;;;3.57;1.83;;;;;;;12.04;87.17;99386.00;5105473;28;20208;-70
2023/03/24 01:19:24;;;;;;;2.50;1.60;;;;;;;12.03;87.34;99394.16;5102791;27;20623;-71
2023/03/24 01:21:53;;;;;;;2.47;2.00;;;;;;;12.02;87.62;99387.97;5102637;28;20291;-70
2023/03/24 01:24:20;;;;;;;3.23;2.13;;;;;;;12.01;87.55;99383.63;5104503;28;20238;-70
2023/03/24 01:26:47;;;;;;;3.30;1.70;;;;;;;12.01;87.79;99380.94;5104354;28;20199;-71
2023/03/24 01:29:13;;;;;;;4.17;2.03;;;;;;;11.98;88.16;99370.56;5106571;28;20224;-70
2023/03/24 01:31:40;;;;;;;2.03;1.77;;;;;;;11.96;88.39;99369.88;5105553;28;20222;-70
2023/03/24 01:34:07;;;;;;;3.70;2.10;;;;;;;11.97;88.26;99358.22;5098097;22;20232;-75
2023/03/24 01:36:34;;;;;;;4.07;1.70;;;;;;;12.01;88.47;99358.75;5082067;28;20208;-74
2023/03/24 01:39:01;;;;;;;2.43;1.87;;;;;;;12.01;88.57;99358.75;5087637;28;20208;-74
2023/03/24 01:41:33;;;;;;;2.73;1.73;;;;;;;12.02;88.45;99355.94;5087777;28;20227;-74
2023/03/24 01:44:00;;;;;;;2.80;1.60;;;;;;;11.98;89.03;99359.91;5086829;28;20227;-75
2023/03/24 01:46:28;;;;;;;2.33;1.80;;;;;;;11.98;88.88;99345.72;5084559;28;20200;-73
2023/03/24 01:49:00;;;;;;;3.53;2.40;;;;;;;12.01;89.28;99350.75;5088846;28;20268;-73
2023/03/24 01:51:30;;;;;;;2.07;1.70;;;;;;;12.00;89.46;99331.22;5084932;28;20229;-73
2023/03/24 01:54:01;;;;;;;1.87;1.30;;;;;;;11.99;89.44;99336.72;5087833;28;20220;-73
2023/03/24 01:56:32;;;;;;;2.07;1.27;;;;;;;12.00;89.57;99331.22;5088155;28;20302;-74
2023/03/24 01:59:02;;;;;;;2.63;2.10;;;;;;;12.06;88.92;99324.50;5080773;28;20211;-73
2023/03/24 02:01:31;;;;;;;2.80;1.50;;;;;;;12.06;89.28;99320.00;5085780;28;20696;-73
2023/03/24 02:03:59;;;;;;;2.67;1.90;;;;;;;12.08;89.45;99310.03;5088209;28;20227;-72
2023/03/24 02:06:26;;;;;;;2.27;1.50;;;;;;;12.04;89.32;99302.44;5088327;28;20212;-73
2023/03/24 02:08:55;;;;;;;1.97;1.40;;;;;;;12.07;89.64;99297.69;5085858;28;20857;-73
2023/03/24 02:11:25;;;;;;;2.80;1.60;;;;;;;12.08;89.56;99294.03;5086645;28;20718;-73
2023/03/24 02:13:52;;;;;;;1.93;1.30;;;;;;;12.07;89.58;99288.84;5088052;28;21039;-73
2023/03/24 02:16:31;;;;;;;1.90;1.70;;;;;;;12.09;89.50;99285.03;5088485;28;20212;-73
2023/03/24 02:19:25;;;;;;;1.80;1.43;;;;;;;12.06;89.95;99288.00;5086793;28;20200;-73
2023/03/24 02:22:20;;;;;;;2.20;1.33;;;;;;;12.05;90.01;99285.47;5085811;28;20722;-73
2023/03/24 02:25:32;;;;;;;2.80;1.30;;;;;;;12.05;89.72;99274.78;5085845;28;20204;-73
2023/03/24 02:28:18;;;;;;;4.17;1.73;;;;;;;12.03;90.04;99279.41;5083034;28;20210;-73
2023/03/24 02:31:08;;;;;;;2.93;1.60;;;;;;;12.03;90.21;99271.41;5087769;28;20222;-73
2023/03/24 02:34:11;;;;;;;1.80;1.40;;;;;;;12.02;90.36;99272.38;5085447;28;20317;-73
2023/03/24 02:37:17;;;;;;;2.57;1.70;;;;;;;11.99;90.48;99268.19;5086911;28;20206;-73
2023/03/24 02:39:55;;;;;;;2.53;1.63;;;;;;;12.03;90.74;99266.06;5081466;28;20756;-73
2023/03/24 02:42:31;;;;;;;1.40;1.30;;;;;;;12.03;90.54;99256.25;5086324;28;20229;-73
2023/03/24 02:45:08;;;;;;;1.77;1.67;;;;;;;12.01;90.47;99257.34;5086938;28;20559;-73
2023/03/24 02:47:44;;;;;;;1.70;1.60;;;;;;;12.04;90.48;99267.75;5086197;28;20298;-73
2023/03/24 02:50:19;;;;;;;2.23;1.40;;;;;;;12.01;90.75;99260.03;5087901;28;20217;-73
2023/03/24 02:52:49;;;;;;;2.17;1.40;;;;;;;12.01;91.00;99252.88;5094271;28;20223;-74
2023/03/24 02:55:22;;;;;;;3.60;1.50;;;;;;;12.09;90.53;99260.19;5090743;28;20200;-73
2023/03/24 02:57:54;;;;;;;2.70;1.87;;;;;;;12.07;90.63;99256.81;5085990;28;20303;-73
2023/03/24 03:00:29;;;;;;;2.40;1.70;;;;;;;12.09;90.46;99249.50;5090022;28;20694;-73
2023/03/24 03:02:59;;;;;;;1.80;1.30;;;;;;;12.08;90.61;99239.81;5087134;28;20247;-74
2023/03/24 03:05:31;;;;;;;1.80;1.70;;;;;;;12.14;90.87;99234.78;5090418;28;20215;-74
2023/03/24 03:08:00;;;;;;;2.97;1.40;;;;;;;12.15;90.71;99239.13;5087299;28;20221;-74
2023/03/24 03:10:32;;;;;;;2.03;1.63;;;;;;;12.17;90.94;99228.31;5093804;28;20223;-73
2023/03/24 03:13:02;;;;;;;1.60;1.37;;;;;;;12.19;90.82;99220.97;5083097;28;20746;-73
2023/03/24 03:15:34;;;;;;;2.43;1.87;;;;;;;12.20;90.90;99216.47;5086156;28;20209;-73
2023/03/24 03:18:07;;;;;;;2.50;1.50;;;;;;;12.19;91.05;99220.97;5081310;28;20213;-73
2023/03/24 03:20:41;;;;;;;3.17;1.83;;;;;;;12.19;91.23;99210.31;5087853;28;20211;-73
2023/03/24 03:23:13;;;;;;;1.80;1.40;;;;;;;12.23;91.45;99217.03;5091724;28;20319;-73
2023/03/24 03:25:49;;;;;;;1.97;1.60;;;;;;;12.24;91.50;99217.88;5083094;28;20225;-73
2023/03/24 03:28:19;;;;;;;2.20;1.60;;;;;;;12.25;91.47;99215.06;5086096;28;20792;-73
2023/03/24 03:30:50;;;;;;;2.17;1.80;;;;;;;12.25;91.78;99211.56;5087416;28;20236;-73
2023/03/24 03:33:23;;;;;;;3.63;1.93;;;;;;;12.24;91.96;99217.88;5086455;28;20232;-73
2023/03/24 03:35:54;;;;;;;2.50;1.90;;;;;;;12.25;91.87;99220.41;5082852;28;20201;-72
2023/03/24 03:38:26;;;;;;;3.33;1.80;;;;;;;12.25;92.28;99220.41;5087604;28;20242;-73
2023/03/24 03:40:58;;;;;;;2.80;1.90;;;;;;;12.22;92.74;99218.03;5086110;28;20575;-73
2023/03/24 03:43:26;;;;;;;2.53;1.80;;;;;;;12.20;93.05;99209.31;5086674;28;20226;-74
2023/03/24 03:45:53;;;;;;;3.43;2.03;;;;;;;12.18;93.24;99210.47;5087312;28;20215;-72
2023/03/24 03:48:21;;;;;;;2.63;1.80;;;;;;;12.18;93.76;99205.97;5088267;28;20679;-72
2023/03/24 03:50:48;;;;;;;2.10;1.90;;;;;;;12.15;94.22;99196.41;5086195;28;20228;-73
2023/03/24 03:53:18;;;;;;;2.70;2.27;;;;;;;12.15;94.51;99199.09;5086611;28;20238;-73
2023/03/24 03:55:46;;;;;;;3.43;2.17;;;;;;;12.13;94.66;99185.03;5091972;28;21367;-73
2023/03/24 03:58:14;;;;;;;3.13;2.50;;;;;;;12.11;95.14;99173.66;5088052;28;20222;-74
2023/03/24 04:00:43;;;;;;;4.63;2.90;;;;;;;12.08;95.46;99175.78;5088758;28;20235;-73
2023/03/24 04:03:36;;;;;;;2.60;2.30;;;;;;;12.04;95.83;99161.03;5080451;28;20242;-73
2023/03/24 04:06:12;;;;;;;4.13;2.70;;;;;;;12.02;96.04;99163.00;5083156;28;20262;-74
2023/03/24 04:08:47;;;;;;;3.50;2.63;;;;;;;12.00;96.71;99154.31;5084873;28;20271;-75
2023/03/24 04:11:36;;;;;;;4.50;2.60;;;;;;;11.97;96.84;99154.59;5088352;28;20231;-73
2023/03/24 04:14:18;;;;;;;6.10;3.23;;;;;;;11.95;97.03;99146.72;5085120;28;20243;-73
2023/03/24 04:16:56;;;;;;;3.90;3.07;;;;;;;11.93;97.30;99139.84;5082752;28;20218;-73
2023/03/24 04:19:41;;;;;;;3.47;3.03;;;;;;;11.90;97.58;99137.47;5085415;28;20204;-73
2023/03/24 04:22:22;;;;;;;5.77;3.60;;;;;;;11.91;98.04;99128.47;5081538;28;20573;-73
2023/03/24 04:24:54;;;;;;;3.07;2.77;;;;;;;11.91;98.22;99128.47;5079238;28;20212;-71
2023/03/24 04:27:27;;;;;;;3.10;2.80;;;;;;;11.91;98.68;99112.47;5085741;28;20233;-74
2023/03/24 04:30:05;;;;;;;5.27;2.83;;;;;;;11.92;98.84;99106.16;5079204;28;20211;-73
2023/03/24 04:32:41;;;;;;;3.73;3.13;;;;;;;11.94;99.15;99096.19;5085691;28;20235;-73
2023/03/24 04:35:13;;;;;;;4.03;2.73;;;;;;;11.94;99.23;99086.34;5077167;28;20636;-73
2023/03/24 04:37:40;;;;;;;3.57;2.87;;;;;;;11.93;99.31;99099.81;5084676;28;20207;-73
2023/03/24 04:40:10;;;;;;;4.40;2.93;;;;;;;11.93;99.53;99091.81;5084280;28;20200;-73
2023/03/24 04:42:41;;;;;;;3.53;2.67;;;;;;;11.94;99.90;99089.00;5085030;28;20221;-73
2023/03/24 04:45:11;;;;;;;5.77;3.30;;;;;;;11.96;99.85;99095.06;5082554;28;20713;-73
2023/03/24 04:47:43;;;;;;;3.57;3.27;;;;;;;11.96;99.88;99094.22;5082419;28;20230;-73
2023/03/24 04:50:11;;;;;;;3.10;2.80;;;;;;;11.99;100.00;99091.25;5085626;28;20204;-73
2023/03/24 04:52:38;;;;;;;3.30;3.00;;;;;;;11.99;100.00;99078.75;5083204;28;20230;-73
2023/03/24 04:55:24;;;;;;;3.87;3.50;;;;;;;11.99;100.00;99078.75;5084838;28;20295;-71
2023/03/24 04:57:52;;;;;;;4.43;3.13;;;;;;;12.03;100.00;99077.47;5086305;28;20868;-72
2023/03/24 05:00:20;;;;;;;4.40;3.23;;;;;;;12.04;100.00;99075.63;5086821;28;20249;-73
2023/03/24 05:02:46;;;;;;;3.50;2.80;;;;;;;12.03;100.00;99076.63;5083945;28;20216;-74
2023/03/24 05:05:13;;;;;;;3.97;3.30;;;;;;;12.05;100.00;99071.97;5090532;28;20200;-73
2023/03/24 05:07:39;;;;;;;3.30;3.00;;;;;;;12.05;100.00;99071.97;5088416;28;20210;-72
2023/03/24 05:10:07;;;;;;;3.23;2.93;;;;;;;12.07;100.00;99076.19;5080837;28;20203;-73
2023/03/24 05:12:34;;;;;;;4.30;3.00;;;;;;;12.06;100.00;99069.19;5087357;28;20251;-72
2023/03/24 05:15:01;;;;;;;5.07;3.27;;;;;;;12.09;100.00;99079.56;5091376;28;20670;-73
2023/03/24 05:17:28;;;;;;;3.30;2.87;;;;;;;12.11;99.94;99072.25;5087295;28;20249;-72
2023/03/24 05:19:55;;;;;;;3.30;2.73;;;;;;;12.13;100.00;99066.78;5085763;28;20218;-73
2023/03/24 05:22:21;;;;;;;3.97;3.20;;;;;;;12.11;99.84;99056.25;5091022;28;20220;-73
2023/03/24 05:24:51;;;;;;;4.07;3.10;;;;;;;12.15;100.00;99046.97;5087108;28;20243;-72
2023/03/24 05:27:17;;;;;;;3.40;3.07;;;;;;;12.19;99.37;99060.84;5089177;28;20211;-74
2023/03/24 05:29:44;;;;;;;4.03;3.20;;;;;;;12.20;99.43;99054.50;5089528;28;20207;-73
2023/03/24 05:32:12;;;;;;;4.27;3.23;;;;;;;12.22;99.09;99057.88;5086355;28;20216;-73
2023/03/24 05:34:40;;;;;;;3.83;3.40;;;;;;;12.26;98.99;99058.44;5089002;28;20238;-73
2023/03/24 05:37:10;;;;;;;4.53;3.50;;;;;;;12.29;98.43;99052.81;5085625;28;20572;-73
2023/03/24 05:39:37;;;;;;;3.73;2.93;;;;;;;12.31;98.13;99053.50;5088508;28;20280;-75
2023/03/24 05:42:04;;;;;;;3.67;3.27;;;;;;;12.33;97.84;99052.38;5082353;28;20219;-72
2023/03/24 05:44:30;;;;;;;3.60;3.17;;;;;;;12.34;98.07;99055.88;5084746;28;20623;-72
2023/03/24 05:46:57;;;;;;;3.47;3.17;;;;;;;12.35;97.48;99055.75;5089102;28;20230;-72
2023/03/24 05:49:23;;;;;;;3.70;3.03;;;;;;;12.38;97.49;99054.59;5089539;28;20586;-73
2023/03/24 05:51:51;;;;;;;4.07;3.00;;;;;;;12.39;97.04;99041.09;5085653;28;20970;-73
2023/03/24 05:54:18;;;;;;;3.43;2.87;;;;;;;12.44;96.45;99035.31;5093580;28;20223;-73
2023/03/24 05:56:44;;;;;;;4.00;3.30;;;;;;;12.52;95.54;99040.78;5082040;28;22606;-73
2023/03/24 05:59:11;;;;;;;4.03;2.87;;;;;;;12.54;95.14;99036.09;5086484;28;20207;-73
2023/03/24 06:01:38;;;;;;;3.57;3.00;;;;;;;12.56;95.13;99042.13;5087123;28;20198;-73
2023/03/24 06:04:05;;;;;;;3.33;2.70;;;;;;;12.59;94.64;99049.84;5084431;28;20318;-72
2023/03/24 06:06:31;;;;;;;3.10;2.83;;;;;;;12.61;94.36;99039.84;5083858;28;20208;-74
2023/03/24 06:09:01;;;;;;;4.20;2.87;;;;;;;12.65;93.98;99049.25;5091962;28;20207;-73
2023/03/24 06:11:28;;;;;;;3.17;2.87;;;;;;;12.64;93.90;99052.06;5082561;28;20365;-73
2023/03/24 06:13:57;;;;;;;3.07;2.87;;;;;;;12.66;93.62;99055.44;5093596;28;20223;-73
2023/03/24 06:16:24;;;;;;;3.63;2.80;;;;;;;12.71;93.38;99058.53;5090954;28;20206;-73
2023/03/24 06:18:51;;;;;;;4.37;3.00;;;;;;;12.75;92.75;99052.69;5089432;28;20208;-71
2023/03/24 06:21:18;;;;;;;4.70;2.93;;;;;;;12.75;92.88;99043.84;5087823;28;20205;-73
2023/03/24 06:23:45;;;;;;;3.87;3.03;;;;;;;12.75;92.66;99063.38;5088961;28;20606;-71
2023/03/24 06:26:13;;;;;;;4.30;3.00;;;;;;;12.74;92.95;99061.69;5083058;28;20197;-70
2023/03/24 06:28:40;;;;;;;3.73;3.33;;;;;;;12.71;93.24;99063.84;5088726;28;20217;-70
2023/03/24 06:31:13;;;;;;;3.40;3.10;;;;;;;12.78;93.07;99072.94;5084387;28;20213;-70
2023/03/24 06:33:39;;;;;;;3.97;3.57;;;;;;;12.77;93.13;99071.25;5085636;28;20764;-70
2023/03/24 06:36:07;;;;;;;3.50;3.20;;;;;;;12.82;93.06;99071.66;5083926;28;20212;-70
2023/03/24 06:38:33;;;;;;;4.30;3.30;;;;;;;12.76;93.73;99083.78;5086729;28;20229;-70
2023/03/24 06:41:00;;;;;;;3.87;3.43;;;;;;;12.73;93.85;99084.06;5085409;28;20210;-70
2023/03/24 06:43:28;;;;;;;5.50;3.90;;;;;;;12.73;94.12;99101.91;5086477;28;20220;-70
2023/03/24 06:45:55;;;;;;;3.83;3.43;;;;;;;12.71;94.66;99111.94;5085169;28;20223;-70
2023/03/24 06:48:21;;;;;;;3.47;2.93;;;;;;;12.70;94.79;99105.75;5085807;28;20291;-70
2023/03/24 06:50:48;;;;;;;3.57;2.60;;;;;;;12.73;94.74;99120.63;5085782;28;20325;-70
2023/03/24 06:53:15;;;;;;;4.50;3.13;;;;;;;12.69;94.85;99117.44;5087479;28;20695;-70
2023/03/24 06:55:41;;;;;;;4.23;3.27;;;;;;;12.69;95.31;99124.59;5089665;28;20248;-70
2023/03/24 06:58:08;;;;;;;3.70;2.53;;;;;;;12.67;95.43;99130.09;5088407;28;20211;-70
2023/03/24 07:00:36;;;;;;;4.00;2.70;;;;;;;12.63;94.97;99141.19;5084662;28;20212;-70
2023/03/24 07:03:06;;;;;;;2.33;1.87;;;;;;;12.56;93.91;99145.44;5087098;28;20281;-70
2023/03/24 07:05:33;;;;;;;1.50;1.40;;;;;;;12.51;92.95;99144.06;5081041;28;20658;-70
2023/03/24 07:07:59;;;;;;;1.90;1.57;;;;;;;12.42;91.24;99133.41;5087757;28;20213;-70
2023/03/24 07:10:26;;;;;;;1.97;1.77;;;;;;;12.44;90.59;99148.28;5088224;28;20208;-70
2023/03/24 07:12:53;;;;;;;1.73;1.50;;;;;;;12.40;90.45;99141.56;5083713;28;20231;-70
2023/03/24 07:15:19;;;;;;;1.57;1.20;;;;;;;12.40;89.66;99146.91;5086848;28;20464;-71
2023/03/24 07:17:47;;;;;;;1.67;1.40;;;;;;;12.39;89.14;99149.72;5086173;28;20281;-70
2023/03/24 07:20:14;;;;;;;1.63;1.53;;;;;;;12.36;88.87;99150.84;5084859;28;20211;-70
2023/03/24 07:22:41;;;;;;;1.40;1.30;;;;;;;12.38;88.84;99148.88;5084670;28;20223;-70
2023/03/24 07:25:08;;;;;;;1.97;1.73;;;;;;;12.40;88.52;99162.06;5087989;28;20211;-69
2023/03/24 07:27:36;;;;;;;1.33;1.23;;;;;;;12.46;88.42;99175.69;5080202;28;20742;-70
2023/03/24 07:30:04;;;;;;;2.20;1.70;;;;;;;12.48;87.97;99191.56;5089661;28;20204;-70
2023/03/24 07:32:33;;;;;;;2.30;1.53;;;;;;;12.50;88.10;99193.13;5086813;28;20235;-71
2023/03/24 07:35:03;;;;;;;1.77;1.67;;;;;;;12.57;88.04;99196.03;5085275;28;20204;-70
2023/03/24 07:37:29;;;;;;;3.83;1.80;;;;;;;12.57;88.26;99200.53;5081764;28;20718;-70
2023/03/24 07:39:56;;;;;;;2.87;1.93;;;;;;;12.58;88.41;99219.09;5087186;28;20196;-70
2023/03/24 07:42:22;;;;;;;2.47;2.20;;;;;;;12.59;88.36;99220.78;5090687;28;20222;-70
2023/03/24 07:44:48;;;;;;;2.00;1.90;;;;;;;12.63;88.59;99221.34;5088813;28;20212;-70
2023/03/24 07:47:15;;;;;;;2.07;1.77;;;;;;;12.63;88.63;99218.66;5086639;28;20208;-70
2023/03/24 07:49:41;;;;;;;2.20;2.00;;;;;;;12.64;88.64;99217.69;5083060;28;20395;-71
2023/03/24 07:52:09;;;;;;;3.03;2.00;;;;;;;12.67;88.62;99209.38;5085228;28;20229;-70
2023/03/24 07:54:36;;;;;;;2.20;2.10;;;;;;;12.67;88.81;99231.59;5088580;28;20218;-70
2023/03/24 07:57:02;;;;;;;2.63;2.33;;;;;;;12.67;88.92;99236.94;5087175;28;20210;-70
2023/03/24 07:59:29;;;;;;;2.47;2.27;;;;;;;12.69;88.65;99252.81;5086221;28;20214;-70
2023/03/24 08:01:55;;;;;;;3.20;2.90;;;;;;;12.70;88.68;99270.53;5087327;28;20196;-70
2023/03/24 08:04:21;;;;;;;3.17;2.87;;;;;;;12.68;88.80;99268.00;5087082;28;20224;-70
2023/03/24 08:06:48;;;;;;;2.80;2.60;;;;;;;12.70;88.72;99276.72;5086365;28;20208;-70
2023/03/24 08:09:16;;;;;;;3.30;2.77;;;;;;;12.73;88.97;99288.91;5087083;28;20207;-70
2023/03/24 08:11:42;;;;;;;1.83;1.70;;;;;;;12.73;88.97;99284.41;5085997;28;20223;-70
2023/03/24 08:14:09;;;;;;;2.10;1.47;;;;;;;12.72;88.11;99288.06;5087283;28;20734;-70
2023/03/24 08:16:37;;;;;;;1.73;1.47;;;;;;;12.72;87.09;99295.28;5084047;28;20213;-71
2023/03/24 08:19:04;;;;;;;2.40;1.30;;;;;;;12.75;86.33;99300.31;5084197;28;20659;-70
2023/03/24 08:21:30;;;;;;;1.13;0.80;;;;;;;12.73;84.28;99283.56;5082635;28;20200;-71
2023/03/24 08:23:57;;;;;;;1.27;1.17;;;;;;;12.74;83.09;99295.94;5084129;28;20223;-70
2023/03/24 08:26:26;;;;;;;2.17;0.90;;;;;;;12.75;81.90;99301.16;5081834;28;20562;-71
2023/03/24 08:28:52;;;;;;;1.03;1.00;;;;;;;12.78;81.34;99303.53;5084238;28;20202;-70
2023/03/24 08:31:19;;;;;;;3.23;1.27;;;;;;;12.84;80.97;99305.66;5085284;28;20217;-71
2023/03/24 08:33:46;;;;;;;1.60;1.00;;;;;;;12.96;80.23;99308.97;5085800;28;20514;-71
2023/03/24 08:36:12;;;;;;;1.00;0.80;;;;;;;13.00;78.24;99305.03;5083072;28;20406;-70
2023/03/24 08:38:38;;;;;;;1.07;0.80;;;;;;;13.11;77.97;99296.81;5086751;28;20210;-70
2023/03/24 08:41:07;;;;;;;1.07;0.50;;;;;;;13.25;76.96;99300.06;5084437;28;20208;-70
2023/03/24 08:43:36;;;;;;;2.80;0.73;;;;;;;13.39;76.09;99299.56;5081772;28;20432;-71
2023/03/24 08:46:06;;;;;;;3.00;0.70;;;;;;;13.44;72.46;99316.84;5085018;28;20227;-71
2023/03/24 08:48:35;;;;;;;2.57;0.60;;;;;;;13.54;70.97;99320.34;5079210;28;20206;-71
2023/03/24 08:51:10;;;;;;;1.83;0.70;;;;;;;13.67;70.60;99338.72;5082768;28;20200;-71
2023/03/24 08:53:36;;;;;;;2.47;0.53;;;;;;;13.78;68.71;99345.72;5084189;28;20233;-71
2023/03/24 08:56:03;;;;;;;1.50;0.60;;;;;;;13.83;66.90;99356.78;5087029;28;20211;-70
2023/03/24 08:58:29;;;;;;;2.53;0.60;;;;;;;13.87;66.36;99352.81;5080404;28;20688;-71
2023/03/24 09:00:57;;;;;;;3.23;0.90;;;;;;;13.90;66.58;99349.84;5084034;28;20606;-71
2023/03/24 09:03:25;;;;;;;2.37;0.80;;;;;;;13.89;65.85;99353.53;5083819;28;20220;-71
2023/03/24 09:05:55;;;;;;;2.27;0.93;;;;;;;13.84;65.61;99359.31;5086192;28;20306;-71
2023/03/24 09:08:22;;;;;;;2.00;0.70;;;;;;;13.76;65.13;99372.63;5081614;28;21596;-71
2023/03/24 09:10:50;;;;;;;1.90;0.80;;;;;;;13.66;64.70;99374.47;5082974;28;20477;-71
2023/03/24 09:13:17;;;;;;;2.73;1.10;;;;;;;13.59;64.65;99377.91;5078779;28;20228;-71
2023/03/24 09:15:46;;;;;;;6.03;1.23;;;;;;;13.54;64.31;99381.00;5084301;28;20613;-71
2023/03/24 09:18:14;;;;;;;1.90;1.10;;;;;;;13.54;65.08;99379.19;5084344;28;20703;-71
2023/03/24 09:20:41;;;;;;;3.50;1.20;;;;;;;13.59;65.29;99380.59;5085821;28;20245;-71
2023/03/24 09:23:07;;;;;;;3.23;1.10;;;;;;;13.61;65.31;99358.06;5086887;28;20216;-70
2023/03/24 09:25:34;;;;;;;2.37;0.90;;;;;;;13.68;65.84;99374.34;5082579;28;20204;-71
2023/03/24 09:28:01;;;;;;;3.50;1.10;;;;;;;13.70;64.69;99385.72;5084987;28;20206;-71
2023/03/24 09:30:28;;;;;;;3.63;1.70;;;;;;;13.67;64.39;99367.28;5085798;28;20583;-71
2023/03/24 09:32:57;;;;;;;2.70;1.33;;;;;;;13.64;64.39;99360.41;5085247;28;20230;-71
2023/03/24 09:35:26;;;;;;;3.70;1.40;;;;;;;13.66;63.74;99358.44;5086256;28;20208;-71
2023/03/24 09:37:53;;;;;;;3.73;1.40;;;;;;;13.67;63.78;99368.13;5084993;28;20337;-71
2023/03/24 09:40:23;;;;;;;2.53;1.40;;;;;;;13.70;63.47;99372.34;5083073;28;20302;-71
2023/03/24 09:42:55;;;;;;;5.03;1.37;;;;;;;13.70;63.79;99383.06;5084881;28;20216;-71
2023/03/24 09:45:23;;;;;;;3.30;1.43;;;;;;;13.72;64.19;99381.94;5085850;28;20204;-71
2023/03/24 09:47:55;;;;;;;4.00;1.40;;;;;;;13.77;63.77;99370.78;5085983;28;20212;-71
2023/03/24 09:50:28;;;;;;;3.23;1.40;;;;;;;13.86;64.32;99370.72;5085286;28;20196;-71
2023/03/24 09:53:00;;;;;;;4.00;1.70;;;;;;;13.88;63.98;99371.41;5085262;28;20231;-70
2023/03/24 09:55:28;;;;;;;8.13;2.07;;;;;;;13.90;63.70;99372.13;5086926;28;20204;-71
2023/03/24 09:57:59;;;;;;;3.53;1.70;;;;;;;13.88;63.74;99381.28;5086095;28;20200;-72
2023/03/24 10:00:27;;;;;;;7.10;2.10;;;;;;;13.85;63.49;99377.06;5083474;28;20299;-71
2023/03/24 10:02:58;;;;;;;5.80;1.87;;;;;;;13.82;63.38;99376.50;5085886;28;20251;-71
2023/03/24 10:05:33;;;;;;;5.03;2.07;;;;;;;13.78;63.40;99377.81;5089267;28;20671;-71
2023/03/24 10:08:10;;;;;;;6.33;1.60;;;;;;;13.76;63.43;99383.31;5084750;28;20204;-71
2023/03/24 10:10:45;;;;;;;4.40;1.50;;;;;;;13.76;63.29;99388.66;5090157;28;20204;-71
2023/03/24 10:13:20;;;;;;;7.17;2.10;;;;;;;13.75;63.03;99386.13;5089679;28;20242;-71
2023/03/24 10:15:51;;;;;;;4.27;1.80;;;;;;;13.77;63.12;99390.34;5089274;28;20200;-71
2023/03/24 10:18:33;;;;;;;6.23;2.43;;;;;;;13.81;63.73;99386.38;5088203;28;20216;-71
2023/03/24 10:21:08;;;;;;;6.13;2.50;;;;;;;13.88;63.57;99383.97;5085965;28;20237;-70
2023/03/24 10:23:41;;;;;;;5.53;1.97;;;;;;;13.96;63.84;99383.22;5085097;28;20226;-71
2023/03/24 10:26:23;;;;;;;5.37;2.13;;;;;;;14.00;63.36;99376.56;5085807;28;20671;-70
2023/03/24 10:29:03;;;;;;;5.07;1.73;;;;;;;14.01;62.81;99388.94;5088615;28;20204;-71
2023/03/24 10:31:34;;;;;;;9.77;2.20;;;;;;;14.05;62.60;99395.69;5089381;28;20232;-70
2023/03/24 10:34:01;;;;;;;5.50;2.60;;;;;;;14.04;62.58;99392.19;5085944;28;20300;-71
2023/03/24 10:36:29;;;;;;;6.03;2.10;;;;;;;14.04;61.65;99385.97;5083570;28;20212;-71
2023/03/24 10:38:56;;;;;;;4.03;1.80;;;;;;;14.04;61.46;99396.69;5086259;28;20667;-71
2023/03/24 10:41:26;;;;;;;8.03;2.00;;;;;;;14.06;62.10;99400.91;5085762;28;20209;-71
2023/03/24 10:43:56;;;;;;;6.33;2.17;;;;;;;14.14;61.97;99405.53;5084935;28;20219;-71
2023/03/24 10:46:25;;;;;;;6.67;1.90;;;;;;;14.20;61.82;99410.25;5088106;28;20212;-71
2023/03/24 10:48:54;;;;;;;4.63;2.13;;;;;;;14.24;61.08;99403.63;5084530;28;20249;-71
2023/03/24 10:51:26;;;;;;;3.73;1.80;;;;;;;14.27;59.65;99405.16;5086638;28;20591;-71
2023/03/24 10:54:10;;;;;;;5.03;1.87;;;;;;;14.27;59.53;99415.88;5088582;28;20674;-72
2023/03/24 10:56:39;;;;;;;5.83;2.07;;;;;;;14.27;58.61;99424.75;5085268;28;20633;-71
2023/03/24 10:59:19;;;;;;;5.47;2.13;;;;;;;14.28;58.62;99423.75;5088162;28;20295;-71
2023/03/24 11:01:46;;;;;;;6.40;2.07;;;;;;;14.30;58.84;99427.13;5087499;28;20667;-71
2023/03/24 11:04:16;;;;;;;3.57;1.83;;;;;;;14.34;58.69;99433.00;5089061;28;20220;-71
2023/03/24 11:06:57;;;;;;;6.10;1.93;;;;;;;14.37;59.10;99425.50;5086851;28;20197;-71
2023/03/24 11:09:25;;;;;;;7.30;2.23;;;;;;;14.38;58.31;99427.19;5083945;28;20231;-71
2023/03/24 11:11:52;;;;;;;4.07;1.73;;;;;;;14.40;58.13;99414.53;5088392;28;20679;-71
2023/03/24 11:14:24;;;;;;;6.17;2.00;;;;;;;14.44;57.84;99415.91;5087890;28;20319;-71
2023/03/24 11:16:51;;;;;;;4.80;1.90;;;;;;;14.52;58.18;99426.69;5086091;28;20299;-71
2023/03/24 11:19:20;;;;;;;5.27;2.23;;;;;;;14.56;57.93;99412.00;5086147;28;20220;-71
2023/03/24 11:21:48;;;;;;;3.57;1.77;;;;;;;14.59;57.12;99413.56;5088939;28;20212;-71
2023/03/24 11:24:16;;;;;;;6.07;1.63;;;;;;;14.59;56.47;99408.19;5083504;28;20631;-71
2023/03/24 11:26:49;;;;;;;4.30;2.00;;;;;;;14.54;56.31;99416.69;5083901;28;20201;-70
2023/03/24 11:29:19;;;;;;;9.10;2.20;;;;;;;14.53;56.31;99412.31;5087931;28;20223;-70
2023/03/24 11:31:53;;;;;;;4.13;2.20;;;;;;;14.49;55.81;99413.63;5088612;28;20209;-71
2023/03/24 11:34:24;;;;;;;4.40;2.20;;;;;;;14.45;55.83;99412.25;5083099;28;20225;-71
2023/03/24 11:36:53;;;;;;;8.83;2.03;;;;;;;14.42;55.94;99412.53;5086382;28;20231;-71
2023/03/24 11:39:22;;;;;;;5.47;1.90;;;;;;;14.44;55.80;99413.25;5087556;28;20205;-71
2023/03/24 11:42:26;;;;;;;4.43;1.83;;;;;;;14.44;55.42;99418.59;5085204;28;20369;-71
2023/03/24 11:44:55;;;;;;;6.43;2.20;;;;;;;14.43;54.50;99403.53;5022589;28;20206;-71
2023/03/24 11:47:27;;;;;;;4.20;2.37;;;;;;;14.41;54.52;99410.84;5075728;28;20243;-71